sensor_id;sensor_type;location;lat;lon;timestamp;pressure;altitude;pressure_sealevel;temperature;humidity
69624;BME280;56843;52.020;5.670;2023-04-25T00:01:12;100834.19;;;9.92;63.23
69624;BME280;56843;52.020;5.670;2023-04-25T00:02:43;100843.63;;;9.89;63.13
69624;BME280;56843;52.020;5.670;2023-04-25T00:04:13;100836.25;;;9.86;63.35
69624;BME280;56843;52.020;5.670;2023-04-25T00:05:44;100844.59;;;9.85;63.30
69624;BME280;56843;52.020;5.670;2023-04-25T00:07:15;100845.66;;;9.84;63.36
69624;BME280;56843;52.020;5.670;2023-04-25T00:08:45;100855.09;;;9.81;63.46
69624;BME280;56843;52.020;5.670;2023-04-25T00:10:16;100852.75;;;9.80;63.53
69624;BME280;56843;52.020;5.670;2023-04-25T00:11:47;100849.59;;;9.78;63.42
69624;BME280;56843;52.020;5.670;2023-04-25T00:13:17;100861.38;;;9.77;63.33
69624;BME280;56843;52.020;5.670;2023-04-25T00:14:49;100858.22;;;9.75;63.66
69624;BME280;56843;52.020;5.670;2023-04-25T00:16:20;100854.31;;;9.72;63.56
69624;BME280;56843;52.020;5.670;2023-04-25T00:17:50;100862.63;;;9.71;63.54
69624;BME280;56843;52.020;5.670;2023-04-25T00:19:23;100852.13;;;9.66;63.75
69624;BME280;56843;52.020;5.670;2023-04-25T00:20:53;100864.81;;;9.69;63.48
69624;BME280;56843;52.020;5.670;2023-04-25T00:22:24;100860.56;;;9.68;63.64
69624;BME280;56843;52.020;5.670;2023-04-25T00:23:55;100862.03;;;9.65;63.67
69624;BME280;56843;52.020;5.670;2023-04-25T00:25:26;100858.84;;;9.63;63.74
69624;BME280;56843;52.020;5.670;2023-04-25T00:26:56;100860.75;;;9.63;63.75
69624;BME280;56843;52.020;5.670;2023-04-25T00:28:27;100865.63;;;9.60;63.91
69624;BME280;56843;52.020;5.670;2023-04-25T00:29:58;100870.97;;;9.60;63.73
69624;BME280;56843;52.020;5.670;2023-04-25T00:31:28;100873.13;;;9.58;63.71
69624;BME280;56843;52.020;5.670;2023-04-25T00:32:59;100878.78;;;9.57;64.09
69624;BME280;56843;52.020;5.670;2023-04-25T00:34:30;100874.84;;;9.54;63.71
69624;BME280;56843;52.020;5.670;2023-04-25T00:36:00;100872.97;;;9.55;63.79
69624;BME280;56843;52.020;5.670;2023-04-25T00:37:31;100871.72;;;9.52;63.83
69624;BME280;56843;52.020;5.670;2023-04-25T00:39:02;100872.84;;;9.51;64.06
69624;BME280;56843;52.020;5.670;2023-04-25T00:40:34;100867.31;;;9.48;63.86
69624;BME280;56843;52.020;5.670;2023-04-25T00:42:05;100871.09;;;9.47;64.03
69624;BME280;56843;52.020;5.670;2023-04-25T00:43:36;100875.66;;;9.46;63.90
69624;BME280;56843;52.020;5.670;2023-04-25T00:45:09;100874.84;;;9.46;63.82
69624;BME280;56843;52.020;5.670;2023-04-25T00:46:42;100864.84;;;9.43;63.88
69624;BME280;56843;52.020;5.670;2023-04-25T00:48:17;100878.16;;;9.43;64.12
69624;BME280;56843;52.020;5.670;2023-04-25T00:49:47;100873.44;;;9.40;63.93
69624;BME280;56843;52.020;5.670;2023-04-25T00:51:20;100871.88;;;9.39;63.89
69624;BME280;56843;52.020;5.670;2023-04-25T00:52:51;100869.06;;;9.35;63.97
69624;BME280;56843;52.020;5.670;2023-04-25T00:54:22;100867.19;;;9.36;64.07
69624;BME280;56843;52.020;5.670;2023-04-25T00:55:54;100867.47;;;9.34;64.11
69624;BME280;56843;52.020;5.670;2023-04-25T00:57:25;100873.44;;;9.31;64.11
69624;BME280;56843;52.020;5.670;2023-04-25T00:58:56;100883.00;;;9.32;64.06
69624;BME280;56843;52.020;5.670;2023-04-25T01:03:03;100876.09;;;9.23;64.14
69624;BME280;56843;52.020;5.670;2023-04-25T01:04:34;100878.44;;;9.24;64.10
69624;BME280;56843;52.020;5.670;2023-04-25T01:06:06;100874.97;;;9.24;63.94
69624;BME280;56843;52.020;5.670;2023-04-25T01:07:37;100884.56;;;9.25;63.98
69624;BME280;56843;52.020;5.670;2023-04-25T01:09:08;100876.84;;;9.23;64.01
69624;BME280;56843;52.020;5.670;2023-04-25T01:10:40;100877.03;;;9.27;63.83
69624;BME280;56843;52.020;5.670;2023-04-25T01:12:10;100885.31;;;9.25;63.93
69624;BME280;56843;52.020;5.670;2023-04-25T01:13:41;100875.78;;;9.24;63.90
69624;BME280;56843;52.020;5.670;2023-04-25T01:15:11;100872.78;;;9.26;63.80
69624;BME280;56843;52.020;5.670;2023-04-25T01:16:42;100880.00;;;9.25;63.91
69624;BME280;56843;52.020;5.670;2023-04-25T01:18:12;100878.13;;;9.26;63.70
69624;BME280;56843;52.020;5.670;2023-04-25T01:19:43;100878.13;;;9.26;63.99
69624;BME280;56843;52.020;5.670;2023-04-25T01:21:14;100880.00;;;9.25;63.68
69624;BME280;56843;52.020;5.670;2023-04-25T01:22:45;100874.66;;;9.25;63.58
69624;BME280;56843;52.020;5.670;2023-04-25T01:24:16;100884.25;;;9.26;63.69
69624;BME280;56843;52.020;5.670;2023-04-25T01:25:47;100878.91;;;9.26;63.66
69624;BME280;56843;52.020;5.670;2023-04-25T01:27:18;100879.69;;;9.27;63.63
69624;BME280;56843;52.020;5.670;2023-04-25T01:28:51;100889.56;;;9.26;63.70
69624;BME280;56843;52.020;5.670;2023-04-25T01:30:22;100885.31;;;9.25;63.67
69624;BME280;56843;52.020;5.670;2023-04-25T01:31:53;100891.91;;;9.28;63.65
69624;BME280;56843;52.020;5.670;2023-04-25T01:33:24;100878.91;;;9.26;63.47
69624;BME280;56843;52.020;5.670;2023-04-25T01:34:55;100894.09;;;9.26;63.28
69624;BME280;56843;52.020;5.670;2023-04-25T01:36:25;100885.81;;;9.27;63.46
69624;BME280;56843;52.020;5.670;2023-04-25T01:37:57;100886.59;;;9.28;63.30
69624;BME280;56843;52.020;5.670;2023-04-25T01:39:28;100888.50;;;9.27;63.40
69624;BME280;56843;52.020;5.670;2023-04-25T01:40:58;100885.81;;;9.27;63.30
69624;BME280;56843;52.020;5.670;2023-04-25T01:42:29;100889.25;;;9.28;63.16
69624;BME280;56843;52.020;5.670;2023-04-25T01:44:00;100889.56;;;9.26;63.36
69624;BME280;56843;52.020;5.670;2023-04-25T01:45:30;100891.16;;;9.27;63.33
69624;BME280;56843;52.020;5.670;2023-04-25T01:47:01;100891.44;;;9.26;63.13
69624;BME280;56843;52.020;5.670;2023-04-25T01:48:32;100895.22;;;9.25;63.02
69624;BME280;56843;52.020;5.670;2023-04-25T01:50:03;100902.56;;;9.28;63.16
69624;BME280;56843;52.020;5.670;2023-04-25T01:51:35;100897.88;;;9.25;63.11
69624;BME280;56843;52.020;5.670;2023-04-25T01:53:06;100911.69;;;9.27;63.17
69624;BME280;56843;52.020;5.670;2023-04-25T01:54:36;100902.91;;;9.26;63.09
69624;BME280;56843;52.020;5.670;2023-04-25T01:56:07;100903.97;;;9.25;63.18
69624;BME280;56843;52.020;5.670;2023-04-25T01:57:39;100905.88;;;9.25;63.17
69624;BME280;56843;52.020;5.670;2023-04-25T01:59:10;100907.44;;;9.26;63.19
69624;BME280;56843;52.020;5.670;2023-04-25T02:00:50;100906.16;;;9.23;63.04
69624;BME280;56843;52.020;5.670;2023-04-25T02:02:20;100921.88;;;9.25;62.95
69624;BME280;56843;52.020;5.670;2023-04-25T02:03:51;100908.69;;;9.20;62.96
69624;BME280;56843;52.020;5.670;2023-04-25T02:05:37;100909.47;;;9.20;63.12
69624;BME280;56843;52.020;5.670;2023-04-25T02:07:10;100911.03;;;9.21;62.97
69624;BME280;56843;52.020;5.670;2023-04-25T02:08:51;100914.81;;;9.20;62.91
69624;BME280;56843;52.020;5.670;2023-04-25T02:10:22;100917.94;;;9.22;62.79
69624;BME280;56843;52.020;5.670;2023-04-25T02:12:10;100914.81;;;9.20;62.88
69624;BME280;56843;52.020;5.670;2023-04-25T02:13:59;100913.53;;;9.18;62.81
69624;BME280;56843;52.020;5.670;2023-04-25T02:15:57;100915.09;;;9.19;62.79
69624;BME280;56843;52.020;5.670;2023-04-25T02:17:27;100909.28;;;9.17;62.60
69624;BME280;56843;52.020;5.670;2023-04-25T02:18:58;100923.88;;;9.19;62.76
69624;BME280;56843;52.020;5.670;2023-04-25T02:20:30;100928.72;;;9.17;62.73
69624;BME280;56843;52.020;5.670;2023-04-25T02:22:00;100923.41;;;9.17;62.59
69624;BME280;56843;52.020;5.670;2023-04-25T02:23:31;100927.19;;;9.16;62.60
69624;BME280;56843;52.020;5.670;2023-04-25T02:25:04;100926.38;;;9.16;62.61
69624;BME280;56843;52.020;5.670;2023-04-25T02:26:35;100929.06;;;9.16;62.40
69624;BME280;56843;52.020;5.670;2023-04-25T02:28:05;100925.91;;;9.14;62.58
69624;BME280;56843;52.020;5.670;2023-04-25T02:29:35;100926.53;;;9.11;62.63
69624;BME280;56843;52.020;5.670;2023-04-25T02:31:06;100927.78;;;9.13;62.77
69624;BME280;56843;52.020;5.670;2023-04-25T02:32:38;100931.53;;;9.12;62.53
69624;BME280;56843;52.020;5.670;2023-04-25T02:34:08;100928.41;;;9.10;62.60
69624;BME280;56843;52.020;5.670;2023-04-25T02:35:41;100931.06;;;9.10;62.64
69624;BME280;56843;52.020;5.670;2023-04-25T02:37:11;100927.91;;;9.08;62.78
69624;BME280;56843;52.020;5.670;2023-04-25T02:38:42;100934.03;;;9.09;62.49
69624;BME280;56843;52.020;5.670;2023-04-25T02:40:12;100934.34;;;9.07;62.50
69624;BME280;56843;52.020;5.670;2023-04-25T02:41:43;100930.44;;;9.05;62.61
69624;BME280;56843;52.020;5.670;2023-04-25T02:43:13;100933.88;;;9.05;62.32
69624;BME280;56843;52.020;5.670;2023-04-25T02:44:44;100924.31;;;9.04;62.57
69624;BME280;56843;52.020;5.670;2023-04-25T02:46:14;100921.50;;;9.01;62.55
69624;BME280;56843;52.020;5.670;2023-04-25T02:47:45;100924.91;;;9.01;62.46
69624;BME280;56843;52.020;5.670;2023-04-25T02:49:15;100924.44;;;8.99;62.62
69624;BME280;56843;52.020;5.670;2023-04-25T02:50:46;100937.28;;;8.97;62.50
69624;BME280;56843;52.020;5.670;2023-04-25T02:52:16;100929.28;;;8.97;62.53
69624;BME280;56843;52.020;5.670;2023-04-25T02:53:49;100925.38;;;8.95;62.58
69624;BME280;56843;52.020;5.670;2023-04-25T02:55:19;100931.00;;;8.93;62.58
69624;BME280;56843;52.020;5.670;2023-04-25T02:56:51;100937.13;;;8.94;62.65
69624;BME280;56843;52.020;5.670;2023-04-25T02:58:27;100940.38;;;8.91;62.52
69624;BME280;56843;52.020;5.670;2023-04-25T02:59:58;100937.72;;;8.91;62.59
69624;BME280;56843;52.020;5.670;2023-04-25T03:01:28;100930.06;;;8.89;62.63
69624;BME280;56843;52.020;5.670;2023-04-25T03:02:59;100931.44;;;8.86;62.52
69624;BME280;56843;52.020;5.670;2023-04-25T03:04:29;100933.16;;;8.82;62.62
69624;BME280;56843;52.020;5.670;2023-04-25T03:06:00;100928.91;;;8.81;62.54
69624;BME280;56843;52.020;5.670;2023-04-25T03:07:35;100931.91;;;8.80;62.54
69624;BME280;56843;52.020;5.670;2023-04-25T03:09:05;100930.63;;;8.77;62.52
69624;BME280;56843;52.020;5.670;2023-04-25T03:10:36;100938.63;;;8.77;62.55
69624;BME280;56843;52.020;5.670;2023-04-25T03:12:10;100942.38;;;8.76;62.42
69624;BME280;56843;52.020;5.670;2023-04-25T03:13:40;100945.34;;;8.75;62.64
69624;BME280;56843;52.020;5.670;2023-04-25T03:15:12;100935.00;;;8.73;62.65
69624;BME280;56843;52.020;5.670;2023-04-25T03:16:43;100934.84;;;8.70;62.74
69624;BME280;56843;52.020;5.670;2023-04-25T03:18:13;100943.59;;;8.70;62.46
69624;BME280;56843;52.020;5.670;2023-04-25T03:19:44;100941.25;;;8.69;62.67
69624;BME280;56843;52.020;5.670;2023-04-25T03:21:14;100937.00;;;8.68;62.64
69624;BME280;56843;52.020;5.670;2023-04-25T03:22:45;100944.22;;;8.67;62.67
69624;BME280;56843;52.020;5.670;2023-04-25T03:24:15;100933.09;;;8.65;62.75
69624;BME280;56843;52.020;5.670;2023-04-25T03:25:46;100941.38;;;8.64;62.73
69624;BME280;56843;52.020;5.670;2023-04-25T03:27:17;100936.34;;;8.62;62.80
69624;BME280;56843;52.020;5.670;2023-04-25T03:28:47;100943.53;;;8.62;62.78
69624;BME280;56843;52.020;5.670;2023-04-25T03:30:18;100951.81;;;8.60;62.76
69624;BME280;56843;52.020;5.670;2023-04-25T03:31:48;100939.00;;;8.62;62.85
69624;BME280;56843;52.020;5.670;2023-04-25T03:33:19;100944.34;;;8.62;62.69
69624;BME280;56843;52.020;5.670;2023-04-25T03:34:50;100943.53;;;8.62;62.61
69624;BME280;56843;52.020;5.670;2023-04-25T03:36:20;100944.34;;;8.62;62.65
69624;BME280;56843;52.020;5.670;2023-04-25T03:37:51;100948.88;;;8.62;62.59
69624;BME280;56843;52.020;5.670;2023-04-25T03:39:27;100942.75;;;8.61;62.34
69624;BME280;56843;52.020;5.670;2023-04-25T03:40:57;100952.63;;;8.61;62.58
69624;BME280;56843;52.020;5.670;2023-04-25T03:42:36;100945.69;;;8.60;62.39
69624;BME280;56843;52.020;5.670;2023-04-25T03:44:06;100945.69;;;8.60;62.51
69624;BME280;56843;52.020;5.670;2023-04-25T03:45:37;100948.69;;;8.58;62.50
69624;BME280;56843;52.020;5.670;2023-04-25T03:47:07;100939.72;;;8.54;62.60
69624;BME280;56843;52.020;5.670;2023-04-25T03:48:38;100952.72;;;8.56;62.38
69624;BME280;56843;52.020;5.670;2023-04-25T03:50:09;100949.28;;;8.55;62.54
69624;BME280;56843;52.020;5.670;2023-04-25T03:51:40;100956.00;;;8.53;62.38
69624;BME280;56843;52.020;5.670;2023-04-25T03:53:11;100961.31;;;8.53;62.42
69624;BME280;56843;52.020;5.670;2023-04-25T03:55:13;100959.88;;;8.47;62.55
69624;BME280;56843;52.020;5.670;2023-04-25T03:56:44;100961.47;;;8.48;62.53
69624;BME280;56843;52.020;5.670;2023-04-25T03:58:22;100954.06;;;8.45;62.31
69624;BME280;56843;52.020;5.670;2023-04-25T03:59:54;100965.03;;;8.43;62.20
69624;BME280;56843;52.020;5.670;2023-04-25T04:01:26;100960.31;;;8.40;62.79
69624;BME280;56843;52.020;5.670;2023-04-25T04:02:57;100963.13;;;8.44;62.36
69624;BME280;56843;52.020;5.670;2023-04-25T04:04:27;100966.91;;;8.43;62.50
69624;BME280;56843;52.020;5.670;2023-04-25T04:05:58;100967.38;;;8.45;62.42
69624;BME280;56843;52.020;5.670;2023-04-25T04:07:29;100966.91;;;8.43;62.05
69624;BME280;56843;52.020;5.670;2023-04-25T04:09:02;100965.78;;;8.44;62.32
69624;BME280;56843;52.020;5.670;2023-04-25T04:10:35;100964.53;;;8.41;62.35
69624;BME280;56843;52.020;5.670;2023-04-25T04:12:06;100958.44;;;8.41;62.42
69624;BME280;56843;52.020;5.670;2023-04-25T04:13:37;100962.38;;;8.43;62.16
69624;BME280;56843;52.020;5.670;2023-04-25T04:15:09;100971.59;;;8.46;62.26
69624;BME280;56843;52.020;5.670;2023-04-25T04:16:40;100976.44;;;8.44;61.93
69624;BME280;56843;52.020;5.670;2023-04-25T04:18:10;100978.34;;;8.43;62.27
69624;BME280;56843;52.020;5.670;2023-04-25T04:19:41;100982.88;;;8.43;62.18
69624;BME280;56843;52.020;5.670;2023-04-25T04:21:22;100974.09;;;8.42;62.40
69624;BME280;56843;52.020;5.670;2023-04-25T04:22:52;100978.63;;;8.42;62.08
69624;BME280;56843;52.020;5.670;2023-04-25T04:24:23;100982.38;;;8.41;62.33
69624;BME280;56843;52.020;5.670;2023-04-25T04:26:00;100990.06;;;8.42;62.17
69624;BME280;56843;52.020;5.670;2023-04-25T04:27:44;100976.59;;;8.39;62.16
69624;BME280;56843;52.020;5.670;2023-04-25T04:29:28;100986.44;;;8.38;62.37
69624;BME280;56843;52.020;5.670;2023-04-25T04:31:10;100985.66;;;8.38;62.18
69624;BME280;56843;52.020;5.670;2023-04-25T04:32:41;100981.91;;;8.39;62.21
69624;BME280;56843;52.020;5.670;2023-04-25T04:34:12;100980.81;;;8.40;62.25
69624;BME280;56843;52.020;5.670;2023-04-25T04:35:43;100987.22;;;8.39;62.16
69624;BME280;56843;52.020;5.670;2023-04-25T04:37:14;100992.56;;;8.39;62.02
69624;BME280;56843;52.020;5.670;2023-04-25T04:38:46;100986.13;;;8.40;62.01
69624;BME280;56843;52.020;5.670;2023-04-25T04:40:24;100999.44;;;8.40;62.09
69624;BME280;56843;52.020;5.670;2023-04-25T04:42:08;100994.91;;;8.40;62.16
69624;BME280;56843;52.020;5.670;2023-04-25T04:44:05;101003.19;;;8.39;62.25
69624;BME280;56843;52.020;5.670;2023-04-25T04:45:55;101003.19;;;8.39;62.13
69624;BME280;56843;52.020;5.670;2023-04-25T04:47:35;101005.84;;;8.39;62.21
69624;BME280;56843;52.020;5.670;2023-04-25T04:49:20;101006.63;;;8.39;62.07
69624;BME280;56843;52.020;5.670;2023-04-25T04:51:10;101006.13;;;8.37;62.04
69624;BME280;56843;52.020;5.670;2023-04-25T04:53:00;101007.53;;;8.35;62.06
69624;BME280;56843;52.020;5.670;2023-04-25T04:55:06;101002.81;;;8.32;62.22
69624;BME280;56843;52.020;5.670;2023-04-25T04:56:56;101002.81;;;8.32;61.75
69624;BME280;56843;52.020;5.670;2023-04-25T04:58:53;101011.88;;;8.31;62.27
69624;BME280;56843;52.020;5.670;2023-04-25T05:00:49;101002.63;;;8.28;62.52
69624;BME280;56843;52.020;5.670;2023-04-25T05:02:38;101006.38;;;8.27;62.30
69624;BME280;56843;52.020;5.670;2023-04-25T05:04:28;101007.94;;;8.28;62.29
69624;BME280;56843;52.020;5.670;2023-04-25T05:06:28;101015.72;;;8.38;62.29
69624;BME280;56843;52.020;5.670;2023-04-25T05:08:19;101021.63;;;8.57;62.03
69624;BME280;56843;52.020;5.670;2023-04-25T05:10:17;101027.59;;;8.76;61.83
69624;BME280;56843;52.020;5.670;2023-04-25T05:12:13;101029.25;;;8.95;61.60
69624;BME280;56843;52.020;5.670;2023-04-25T05:13:53;101026.97;;;9.10;61.36
69624;BME280;56843;52.020;5.670;2023-04-25T05:15:42;101028.63;;;9.28;61.23
69624;BME280;56843;52.020;5.670;2023-04-25T05:17:35;101038.88;;;9.43;60.92
69624;BME280;56843;52.020;5.670;2023-04-25T05:19:23;101027.28;;;9.56;60.86
69624;BME280;56843;52.020;5.670;2023-04-25T05:21:13;101038.63;;;9.71;60.78
69624;BME280;56843;52.020;5.670;2023-04-25T05:23:03;101047.59;;;9.83;60.71
69624;BME280;56843;52.020;5.670;2023-04-25T05:24:56;101045.44;;;9.94;60.62
69624;BME280;56843;52.020;5.670;2023-04-25T05:26:55;101050.94;;;10.06;60.67
69624;BME280;56843;52.020;5.670;2023-04-25T05:28:25;101049.84;;;10.15;60.42
69624;BME280;56843;52.020;5.670;2023-04-25T05:30:23;101042.97;;;10.23;60.40
69624;BME280;56843;52.020;5.670;2023-04-25T05:32:02;101049.09;;;10.32;60.27
69624;BME280;56843;52.020;5.670;2023-04-25T05:33:34;101057.88;;;10.41;60.58
69624;BME280;56843;52.020;5.670;2023-04-25T05:35:05;101051.28;;;10.47;60.12
69624;BME280;56843;52.020;5.670;2023-04-25T05:36:43;101058.81;;;10.54;60.06
69624;BME280;56843;52.020;5.670;2023-04-25T05:38:14;101058.84;;;10.62;60.09
69624;BME280;56843;52.020;5.670;2023-04-25T05:40:08;101066.66;;;10.67;60.15
69624;BME280;56843;52.020;5.670;2023-04-25T05:41:59;101061.94;;;10.73;60.02
69624;BME280;56843;52.020;5.670;2023-04-25T05:43:48;101062.56;;;10.78;59.94
69624;BME280;56843;52.020;5.670;2023-04-25T05:45:37;101061.78;;;10.86;60.15
69624;BME280;56843;52.020;5.670;2023-04-25T05:47:08;101063.50;;;10.91;60.04
69624;BME280;56843;52.020;5.670;2023-04-25T05:49:11;101061.09;;;10.98;59.75
69624;BME280;56843;52.020;5.670;2023-04-25T05:51:00;101068.31;;;11.06;59.86
69624;BME280;56843;52.020;5.670;2023-04-25T05:52:57;101068.16;;;11.11;59.70
69624;BME280;56843;52.020;5.670;2023-04-25T05:54:42;101079.59;;;11.20;59.48
69624;BME280;56843;52.020;5.670;2023-04-25T05:56:13;101080.22;;;11.26;59.59
69624;BME280;56843;52.020;5.670;2023-04-25T05:57:45;101078.31;;;11.35;59.64
69624;BME280;56843;52.020;5.670;2023-04-25T05:59:17;101073.88;;;11.39;59.73
69624;BME280;56843;52.020;5.670;2023-04-25T06:00:47;101075.72;;;11.47;59.55
69624;BME280;56843;52.020;5.670;2023-04-25T06:02:19;101073.66;;;11.52;59.57
69624;BME280;56843;52.020;5.670;2023-04-25T06:03:51;101072.72;;;11.57;59.45
69624;BME280;56843;52.020;5.670;2023-04-25T06:05:22;101079.47;;;11.63;59.52
69624;BME280;56843;52.020;5.670;2023-04-25T06:06:53;101081.97;;;11.68;59.12
69624;BME280;56843;52.020;5.670;2023-04-25T06:08:26;101092.50;;;11.73;59.58
69624;BME280;56843;52.020;5.670;2023-04-25T06:09:57;101091.81;;;11.76;59.32
69624;BME280;56843;52.020;5.670;2023-04-25T06:11:27;101105.50;;;11.83;59.39
69624;BME280;56843;52.020;5.670;2023-04-25T06:12:58;101096.81;;;11.86;59.09
69624;BME280;56843;52.020;5.670;2023-04-25T06:14:29;101093.19;;;11.91;59.01
69624;BME280;56843;52.020;5.670;2023-04-25T06:16:00;101092.50;;;11.94;58.90
69624;BME280;56843;52.020;5.670;2023-04-25T06:17:32;101098.94;;;12.01;58.59
69624;BME280;56843;52.020;5.670;2023-04-25T06:19:04;101092.16;;;12.04;58.72
69624;BME280;56843;52.020;5.670;2023-04-25T06:20:34;101092.28;;;12.07;58.58
69624;BME280;56843;52.020;5.670;2023-04-25T06:22:05;101086.28;;;12.10;58.54
69624;BME280;56843;52.020;5.670;2023-04-25T06:23:37;101095.22;;;12.14;58.74
69624;BME280;56843;52.020;5.670;2023-04-25T06:25:11;101094.25;;;12.19;58.50
69624;BME280;56843;52.020;5.670;2023-04-25T06:26:42;101109.66;;;12.22;58.35
69624;BME280;56843;52.020;5.670;2023-04-25T06:28:12;101112.47;;;12.25;58.45
69624;BME280;56843;52.020;5.670;2023-04-25T06:29:43;101103.78;;;12.28;58.33
69624;BME280;56843;52.020;5.670;2023-04-25T06:31:13;101105.03;;;12.31;58.03
69624;BME280;56843;52.020;5.670;2023-04-25T06:32:46;101108.94;;;12.33;58.19
69624;BME280;56843;52.020;5.670;2023-04-25T06:34:17;101109.41;;;12.35;58.08
69624;BME280;56843;52.020;5.670;2023-04-25T06:35:48;101108.41;;;12.40;57.77
69624;BME280;56843;52.020;5.670;2023-04-25T06:37:22;101111.56;;;12.42;57.89
69624;BME280;56843;52.020;5.670;2023-04-25T06:38:52;101105.56;;;12.45;57.99
69624;BME280;56843;52.020;5.670;2023-04-25T06:40:23;101114.84;;;12.47;57.88
69624;BME280;56843;52.020;5.670;2023-04-25T06:41:53;101113.72;;;12.48;57.83
69624;BME280;56843;52.020;5.670;2023-04-25T06:43:44;101109.94;;;12.49;57.60
69624;BME280;56843;52.020;5.670;2023-04-25T06:45:26;101112.72;;;12.53;57.65
69624;BME280;56843;52.020;5.670;2023-04-25T06:46:57;101118.22;;;12.57;57.21
69624;BME280;56843;52.020;5.670;2023-04-25T06:48:28;101117.56;;;12.60;57.35
69624;BME280;56843;52.020;5.670;2023-04-25T06:49:58;101120.69;;;12.62;57.14
69624;BME280;56843;52.020;5.670;2023-04-25T06:51:29;101120.03;;;12.65;57.36
69624;BME280;56843;52.020;5.670;2023-04-25T06:53:01;101127.00;;;12.66;57.29
69624;BME280;56843;52.020;5.670;2023-04-25T06:54:33;101120.50;;;12.67;57.10
69624;BME280;56843;52.020;5.670;2023-04-25T06:56:09;101116.84;;;12.71;57.16
69624;BME280;56843;52.020;5.670;2023-04-25T06:57:54;101125.66;;;12.72;56.98
69624;BME280;56843;52.020;5.670;2023-04-25T06:59:43;101123.00;;;12.72;57.08
69624;BME280;56843;52.020;5.670;2023-04-25T07:01:14;101135.41;;;12.76;57.17
69624;BME280;56843;52.020;5.670;2023-04-25T07:02:45;101140.16;;;12.79;57.16
69624;BME280;56843;52.020;5.670;2023-04-25T07:04:16;101136.78;;;12.82;56.93
69624;BME280;56843;52.020;5.670;2023-04-25T07:05:52;101133.78;;;12.84;56.77
69624;BME280;56843;52.020;5.670;2023-04-25T07:07:23;101138.81;;;12.85;56.61
69624;BME280;56843;52.020;5.670;2023-04-25T07:08:59;101136.25;;;12.89;56.95
69624;BME280;56843;52.020;5.670;2023-04-25T07:10:29;101131.81;;;12.93;56.96
69624;BME280;56843;52.020;5.670;2023-04-25T07:12:01;101131.16;;;12.96;56.73
69624;BME280;56843;52.020;5.670;2023-04-25T07:13:31;101136.19;;;12.97;56.47
69624;BME280;56843;52.020;5.670;2023-04-25T07:15:02;101138.22;;;13.00;56.34
69624;BME280;56843;52.020;5.670;2023-04-25T07:16:36;101139.44;;;13.03;56.22
69624;BME280;56843;52.020;5.670;2023-04-25T07:18:06;101143.38;;;13.05;56.60
69624;BME280;56843;52.020;5.670;2023-04-25T07:19:37;101144.63;;;13.08;56.70
69624;BME280;56843;52.020;5.670;2023-04-25T07:21:10;101140.00;;;13.08;56.41
69624;BME280;56843;52.020;5.670;2023-04-25T07:22:41;101150.88;;;13.12;56.36
69624;BME280;56843;52.020;5.670;2023-04-25T07:24:12;101155.91;;;13.13;56.50
69624;BME280;56843;52.020;5.670;2023-04-25T07:25:47;101156.69;;;13.14;56.19
69624;BME280;56843;52.020;5.670;2023-04-25T07:27:22;101154.47;;;13.16;56.45
69624;BME280;56843;52.020;5.670;2023-04-25T07:29:25;101153.66;;;13.15;56.49
69624;BME280;56843;52.020;5.670;2023-04-25T07:30:56;101154.13;;;13.17;56.29
69624;BME280;56843;52.020;5.670;2023-04-25T07:32:29;101154.56;;;13.19;56.05
69624;BME280;56843;52.020;5.670;2023-04-25T07:34:00;101161.50;;;13.20;55.90
69624;BME280;56843;52.020;5.670;2023-04-25T07:35:31;101161.19;;;13.22;56.17
69624;BME280;56843;52.020;5.670;2023-04-25T07:37:01;101172.34;;;13.24;56.29
69624;BME280;56843;52.020;5.670;2023-04-25T07:38:39;101158.16;;;13.23;55.79
69624;BME280;56843;52.020;5.670;2023-04-25T07:40:10;101161.31;;;13.25;55.80
69624;BME280;56843;52.020;5.670;2023-04-25T07:41:46;101164.44;;;13.27;55.74
69624;BME280;56843;52.020;5.670;2023-04-25T07:43:22;101177.06;;;13.27;55.69
69624;BME280;56843;52.020;5.670;2023-04-25T07:45:02;101169.03;;;13.27;55.69
69624;BME280;56843;52.020;5.670;2023-04-25T07:46:33;101177.97;;;13.31;55.56
69624;BME280;56843;52.020;5.670;2023-04-25T07:48:03;101172.25;;;13.33;55.72
69624;BME280;56843;52.020;5.670;2023-04-25T07:49:37;101169.56;;;13.33;55.86
69624;BME280;56843;52.020;5.670;2023-04-25T07:51:07;101183.59;;;13.38;55.94
69624;BME280;56843;52.020;5.670;2023-04-25T07:52:40;101179.00;;;13.39;55.44
69624;BME280;56843;52.020;5.670;2023-04-25T07:54:30;101182.78;;;13.38;55.80
69624;BME280;56843;52.020;5.670;2023-04-25T07:56:06;101178.66;;;13.40;55.74
69624;BME280;56843;52.020;5.670;2023-04-25T07:57:40;101197.25;;;13.45;55.77
69624;BME280;56843;52.020;5.670;2023-04-25T07:59:10;101189.19;;;13.45;55.44
69624;BME280;56843;52.020;5.670;2023-04-25T08:00:41;101195.81;;;13.48;55.28
69624;BME280;56843;52.020;5.670;2023-04-25T08:02:32;101197.69;;;13.47;55.47
69624;BME280;56843;52.020;5.670;2023-04-25T08:04:02;101194.66;;;13.49;55.67
69624;BME280;56843;52.020;5.670;2023-04-25T08:05:52;101191.66;;;13.50;55.64
69624;BME280;56843;52.020;5.670;2023-04-25T08:07:23;101197.81;;;13.51;55.16
69624;BME280;56843;52.020;5.670;2023-04-25T08:08:57;101201.06;;;13.56;55.43
69624;BME280;56843;52.020;5.670;2023-04-25T08:10:35;101199.16;;;13.57;55.35
69624;BME280;56843;52.020;5.670;2023-04-25T08:12:05;101200.38;;;13.59;55.21
69624;BME280;56843;52.020;5.670;2023-04-25T08:13:37;101189.66;;;13.59;55.03
69624;BME280;56843;52.020;5.670;2023-04-25T08:15:08;101201.31;;;13.63;55.09
69624;BME280;56843;52.020;5.670;2023-04-25T08:16:41;101210.47;;;13.62;55.06
69624;BME280;56843;52.020;5.670;2023-04-25T08:18:12;101198.94;;;13.62;54.73
69624;BME280;56843;52.020;5.670;2023-04-25T08:19:43;101213.16;;;13.62;55.02
69624;BME280;56843;52.020;5.670;2023-04-25T08:21:21;101216.94;;;13.61;54.71
69624;BME280;56843;52.020;5.670;2023-04-25T08:22:51;101212.03;;;13.63;54.60